createdAt,value
2019-02-21T00:01:10.740Z,36.67
2019-02-21T00:03:39.345Z,28.80
2019-02-21T00:06:08.131Z,33.70
2019-02-21T00:08:36.922Z,28.43
2019-02-21T00:11:05.667Z,29.37
2019-02-21T00:13:34.347Z,30.63
2019-02-21T00:16:03.133Z,22.80
2019-02-21T00:18:31.926Z,33.13
2019-02-21T00:21:00.704Z,28.53
2019-02-21T00:23:29.375Z,33.67
2019-02-21T00:25:58.118Z,37.00
2019-02-21T00:28:27.218Z,28.37
2019-02-21T00:30:55.864Z,32.63
2019-02-21T00:33:24.580Z,28.50
2019-02-21T00:35:53.328Z,28.53
2019-02-21T00:38:22.111Z,27.10
2019-02-21T00:40:50.838Z,27.27
2019-02-21T00:43:19.530Z,28.33
2019-02-21T00:45:48.266Z,28.30
2019-02-21T00:48:16.963Z,26.27
2019-02-21T00:50:45.635Z,31.30
2019-02-21T00:53:14.425Z,26.03
2019-02-21T00:55:43.250Z,28.90
2019-02-21T00:58:12.038Z,28.03
2019-02-21T01:00:46.472Z,24.13
2019-02-21T01:03:10.964Z,22.57
2019-02-21T01:05:39.731Z,36.70
2019-02-21T01:08:09.092Z,27.90
2019-02-21T01:10:37.774Z,27.73
2019-02-21T01:13:06.458Z,23.00
2019-02-21T01:15:35.245Z,25.37
2019-02-21T01:18:04.277Z,23.37
2019-02-21T01:20:32.919Z,24.63
2019-02-21T01:23:02.158Z,25.60
2019-02-21T01:25:31.144Z,22.73
2019-02-21T01:28:00.246Z,23.67
2019-02-21T01:30:28.885Z,27.37
2019-02-21T01:32:57.551Z,24.07
2019-02-21T01:35:26.260Z,22.93
2019-02-21T01:37:54.939Z,27.50
2019-02-21T01:40:23.665Z,26.67
2019-02-21T01:42:52.455Z,29.67
2019-02-21T01:45:40.552Z,26.13
2019-02-21T01:48:09.236Z,23.37
2019-02-21T01:50:38.148Z,25.03
2019-02-21T01:53:07.263Z,29.97
2019-02-21T01:55:35.908Z,27.50
2019-02-21T01:58:04.735Z,26.27
2019-02-21T02:00:33.479Z,24.40
2019-02-21T02:03:02.266Z,26.23
2019-02-21T02:05:30.850Z,26.77
2019-02-21T02:07:59.635Z,23.93
2019-02-21T02:10:28.459Z,28.67
2019-02-21T02:12:57.554Z,31.90
2019-02-21T02:15:26.555Z,24.83
2019-02-21T02:17:55.741Z,26.17
2019-02-21T02:20:24.486Z,24.30
2019-02-21T02:22:53.590Z,25.40
2019-02-21T02:25:22.205Z,22.83
2019-02-21T02:27:50.950Z,29.73
2019-02-21T02:30:19.651Z,27.47
2019-02-21T02:32:48.424Z,27.80
2019-02-21T02:35:17.351Z,28.83
2019-02-21T02:37:46.106Z,25.37
2019-02-21T02:40:14.929Z,21.20
2019-02-21T02:42:43.606Z,22.27
2019-02-21T02:45:12.402Z,22.53
2019-02-21T02:47:41.043Z,25.97
2019-02-21T02:50:09.892Z,26.00
2019-02-21T02:52:38.737Z,23.80
2019-02-21T02:55:07.546Z,20.60
2019-02-21T02:57:36.302Z,24.53
2019-02-21T03:00:08.199Z,22.83
2019-02-21T03:02:36.938Z,24.13
2019-02-21T03:05:07.158Z,22.00
2019-02-21T03:07:35.841Z,24.77
2019-02-21T03:10:10.322Z,21.20
2019-02-21T03:12:39.044Z,30.03
2019-02-21T03:15:08.699Z,20.83
2019-02-21T03:17:37.371Z,21.77
2019-02-21T03:20:08.772Z,24.30
2019-02-21T03:22:37.467Z,18.83
2019-02-21T03:25:07.449Z,24.17
2019-02-21T03:27:36.209Z,19.90
2019-02-21T03:30:11.637Z,25.10
2019-02-21T03:32:37.060Z,23.80
2019-02-21T03:35:07.674Z,25.83
2019-02-21T03:37:36.397Z,19.30
2019-02-21T03:40:07.923Z,20.57
2019-02-21T03:42:36.677Z,25.20
2019-02-21T03:45:08.725Z,21.77
2019-02-21T03:47:37.996Z,23.97
2019-02-21T03:50:09.071Z,21.43
2019-02-21T03:52:37.711Z,21.63
2019-02-21T03:55:07.959Z,22.33
2019-02-21T03:57:36.863Z,29.47
2019-02-21T04:00:11.429Z,24.13
2019-02-21T04:02:40.135Z,25.70
2019-02-21T04:05:09.008Z,23.00
2019-02-21T04:07:37.647Z,20.93
2019-02-21T04:10:08.475Z,18.23
2019-02-21T04:12:37.322Z,27.33
2019-02-21T04:15:09.142Z,23.00
2019-02-21T04:17:37.956Z,26.33
2019-02-21T04:20:10.329Z,24.27
2019-02-21T04:22:38.964Z,29.03
2019-02-21T04:25:07.695Z,22.83
2019-02-21T04:27:36.315Z,25.57
2019-02-21T04:30:05.765Z,26.20
2019-02-21T04:32:36.238Z,19.63
2019-02-21T04:35:06.391Z,26.33
2019-02-21T04:37:35.016Z,21.97
2019-02-21T04:40:04.338Z,23.83
2019-02-21T04:42:33.674Z,26.20
2019-02-21T04:45:02.594Z,22.67
2019-02-21T04:47:31.482Z,27.33
2019-02-21T04:50:00.145Z,26.83
2019-02-21T04:52:30.550Z,27.70
2019-02-21T04:54:59.131Z,21.47
2019-02-21T04:57:27.859Z,25.37
2019-02-21T04:59:56.417Z,25.17
2019-02-21T05:02:29.065Z,24.47
2019-02-21T05:04:55.449Z,29.93
2019-02-21T05:07:24.018Z,28.83
2019-02-21T05:09:57.951Z,30.17
2019-02-21T05:12:23.265Z,27.77
2019-02-21T05:14:51.850Z,32.67
2019-02-21T05:17:20.472Z,26.10
2019-02-21T05:19:49.083Z,34.00
2019-02-21T05:22:18.140Z,25.47
2019-02-21T05:24:46.823Z,33.77
2019-02-21T05:27:17.081Z,30.43
2019-02-21T05:29:45.678Z,30.23
2019-02-21T05:32:15.967Z,31.77
2019-02-21T05:34:58.558Z,30.60
2019-02-21T05:37:31.852Z,35.03
2019-02-21T05:40:04.940Z,33.37
2019-02-21T05:42:35.198Z,33.73
2019-02-21T05:45:17.713Z,33.33
2019-02-21T05:48:04.314Z,35.50
2019-02-21T05:50:50.714Z,34.20
2019-02-21T05:53:20.996Z,33.33
2019-02-21T05:55:51.523Z,37.53
2019-02-21T05:58:37.150Z,32.20
2019-02-21T06:01:10.204Z,38.50
2019-02-21T06:03:43.587Z,35.50
2019-02-21T06:06:13.852Z,29.90
2019-02-21T06:08:56.377Z,34.30
2019-02-21T06:11:29.322Z,34.83
2019-02-21T06:13:59.636Z,38.50
2019-02-21T06:16:36.056Z,34.90
2019-02-21T06:19:06.423Z,36.57
2019-02-21T06:21:36.737Z,38.47
2019-02-21T06:24:12.638Z,31.83
2019-02-21T06:26:42.965Z,39.67
2019-02-21T06:29:16.083Z,41.27
2019-02-21T06:31:44.679Z,38.47
2019-02-21T06:34:13.820Z,47.00
2019-02-21T06:36:42.422Z,35.80
2019-02-21T06:39:11.189Z,37.53
2019-02-21T06:41:39.830Z,39.53
2019-02-21T06:44:08.454Z,37.67
2019-02-21T06:46:37.040Z,40.10
2019-02-21T06:49:05.626Z,35.30
2019-02-21T06:51:34.771Z,44.80
2019-02-21T06:54:03.362Z,37.70
2019-02-21T06:56:32.446Z,37.80
2019-02-21T06:59:01.152Z,40.70
2019-02-21T07:01:29.864Z,38.23
2019-02-21T07:03:58.605Z,43.83
2019-02-21T07:06:31.789Z,32.67
2019-02-21T07:08:59.923Z,34.20
2019-02-21T07:11:28.983Z,36.13
2019-02-21T07:13:57.639Z,33.10
2019-02-21T07:16:26.657Z,33.80
2019-02-21T07:18:55.257Z,35.87
2019-02-21T07:21:24.003Z,34.53
2019-02-21T07:23:53.139Z,39.10
2019-02-21T07:26:21.786Z,32.13
2019-02-21T07:28:50.467Z,32.63
2019-02-21T07:31:28.096Z,34.20
2019-02-21T07:33:49.473Z,34.70
2019-02-21T07:36:19.465Z,41.57
2019-02-21T07:38:48.315Z,34.47
2019-02-21T07:41:18.695Z,34.87
2019-02-21T07:43:47.427Z,35.17
2019-02-21T07:46:16.066Z,35.10
2019-02-21T07:48:44.756Z,34.87
2019-02-21T07:51:13.676Z,32.77
2019-02-21T07:53:42.469Z,33.40
2019-02-21T07:56:11.213Z,32.90
2019-02-21T07:58:39.902Z,33.17
2019-02-21T08:01:08.991Z,36.70
2019-02-21T08:03:44.977Z,32.27
2019-02-21T08:06:08.719Z,30.93
2019-02-21T08:08:37.410Z,34.20
2019-02-21T08:11:07.266Z,29.47
2019-02-21T08:13:36.200Z,45.27
2019-02-21T08:16:05.343Z,38.20
2019-02-21T08:18:33.946Z,35.47
2019-02-21T08:21:02.907Z,29.13
2019-02-21T08:23:32.439Z,37.07
2019-02-21T08:26:01.495Z,34.53
2019-02-21T08:28:30.251Z,35.53
2019-02-21T08:30:58.940Z,38.50
2019-02-21T08:33:29.201Z,41.20
2019-02-21T08:35:58.062Z,31.33
2019-02-21T08:38:27.174Z,34.00
2019-02-21T08:40:57.198Z,34.27
2019-02-21T08:43:26.044Z,32.10
2019-02-21T08:45:57.539Z,38.33
2019-02-21T08:48:27.042Z,41.90
2019-02-21T08:50:55.571Z,37.17
2019-02-21T08:53:24.262Z,38.03
2019-02-21T08:55:52.982Z,38.90
2019-02-21T08:58:21.728Z,40.10
2019-02-21T09:00:50.470Z,39.43
2019-02-21T09:03:19.663Z,40.63
2019-02-21T09:05:49.793Z,35.97
2019-02-21T09:08:18.522Z,35.80
2019-02-21T09:10:47.864Z,37.83
2019-02-21T09:13:16.811Z,39.40
2019-02-21T09:15:46.531Z,49.73
2019-02-21T09:18:15.554Z,38.13
2019-02-21T09:20:44.239Z,40.63
2019-02-21T09:23:15.757Z,38.73
2019-02-21T09:25:44.826Z,51.57
2019-02-21T09:28:15.715Z,40.00
2019-02-21T09:30:44.087Z,44.30
2019-02-21T09:33:17.349Z,46.60
2019-02-21T09:35:43.062Z,42.00
2019-02-21T09:38:11.662Z,41.63
2019-02-21T09:40:42.675Z,41.97
2019-02-21T09:43:11.101Z,34.47
2019-02-21T09:45:42.209Z,42.70
2019-02-21T09:48:12.002Z,47.50
2019-02-21T09:50:40.808Z,32.43
2019-02-21T09:53:09.832Z,37.27
2019-02-21T09:55:38.471Z,37.10
2019-02-21T09:58:07.302Z,37.13
2019-02-21T10:00:36.134Z,42.17
2019-02-21T10:03:04.981Z,39.30
2019-02-21T10:05:33.664Z,41.23
2019-02-21T10:08:02.321Z,47.53
2019-02-21T10:10:30.991Z,44.53
2019-02-21T10:12:59.820Z,47.97
2019-02-21T10:15:31.300Z,42.00
2019-02-21T10:17:58.994Z,44.53
2019-02-21T10:20:27.782Z,46.50
2019-02-21T10:22:56.680Z,42.57
2019-02-21T10:25:27.805Z,48.97
2019-02-21T10:27:58.879Z,39.97
2019-02-21T10:30:26.939Z,43.43
2019-02-21T10:32:55.585Z,43.53
2019-02-21T10:35:24.333Z,47.40
2019-02-21T10:37:53.017Z,43.23
2019-02-21T10:40:22.127Z,40.27
2019-02-21T10:42:50.861Z,40.23
2019-02-21T10:45:21.774Z,49.03
2019-02-21T10:47:50.469Z,46.63
2019-02-21T10:50:20.340Z,50.30
2019-02-21T10:52:49.467Z,48.20
2019-02-21T10:55:18.807Z,46.80
2019-02-21T10:57:47.575Z,43.50
2019-02-21T11:00:30.373Z,41.77
2019-02-21T11:02:59.167Z,39.90
2019-02-21T11:05:28.217Z,56.47
2019-02-21T11:07:56.940Z,39.67
2019-02-21T11:10:31.666Z,41.33
2019-02-21T11:13:00.396Z,40.13
2019-02-21T11:15:29.143Z,38.37
2019-02-21T11:17:57.823Z,37.40
2019-02-21T11:20:26.504Z,37.40
2019-02-21T11:22:55.117Z,37.13
2019-02-21T11:25:24.126Z,38.93
2019-02-21T11:27:52.717Z,42.40
2019-02-21T11:30:23.030Z,39.70
2019-02-21T11:32:51.713Z,37.83
2019-02-21T11:35:20.510Z,36.53
2019-02-21T11:37:49.188Z,34.00
2019-02-21T11:40:18.280Z,32.20
2019-02-21T11:42:48.110Z,35.20
2019-02-21T11:45:18.345Z,39.37
2019-02-21T11:47:47.201Z,33.40
2019-02-21T11:50:22.102Z,33.50
2019-02-21T11:52:51.184Z,32.57
2019-02-21T11:55:25.393Z,32.43
2019-02-21T11:57:54.511Z,30.83
2019-02-21T12:00:30.745Z,30.23
2019-02-21T12:02:59.481Z,32.57
2019-02-21T12:05:31.027Z,28.07
2019-02-21T12:07:58.486Z,35.00
2019-02-21T12:10:27.198Z,28.87
2019-02-21T12:12:55.919Z,31.67
2019-02-21T12:15:24.642Z,33.63
2019-02-21T12:17:53.244Z,29.70
2019-02-21T12:20:22.112Z,30.53
2019-02-21T12:22:50.750Z,29.60
2019-02-21T12:25:22.561Z,27.23
2019-02-21T12:27:51.300Z,29.27
2019-02-21T12:30:20.734Z,25.73
2019-02-21T12:32:49.834Z,32.73
2019-02-21T12:35:29.178Z,32.30
2019-02-21T12:37:49.252Z,30.00
2019-02-21T12:40:19.983Z,28.40
2019-02-21T12:42:48.735Z,32.47
2019-02-21T12:45:22.035Z,32.10
2019-02-21T12:47:53.875Z,27.77
2019-02-21T12:50:21.149Z,28.27
2019-02-21T12:52:49.964Z,28.23
2019-02-21T12:55:26.954Z,26.50
2019-02-21T12:57:48.759Z,29.70
2019-02-21T13:00:21.456Z,26.90
2019-02-21T13:02:50.331Z,27.63
2019-02-21T13:05:19.127Z,23.77
2019-02-21T13:07:47.869Z,27.47
2019-02-21T13:10:18.839Z,27.77
2019-02-21T13:12:47.524Z,27.50
2019-02-21T13:15:16.573Z,28.30
2019-02-21T13:17:45.365Z,31.13
2019-02-21T13:20:15.203Z,31.40
2019-02-21T13:22:43.864Z,32.47
2019-02-21T13:25:15.420Z,31.20
2019-02-21T13:27:44.090Z,32.67
2019-02-21T13:30:15.228Z,30.83
2019-02-21T13:32:43.859Z,27.23
2019-02-21T13:35:12.648Z,33.07
2019-02-21T13:37:41.386Z,30.70
2019-02-21T13:40:12.884Z,29.70
2019-02-21T13:42:42.084Z,37.10
2019-02-21T13:45:13.058Z,32.93
2019-02-21T13:47:42.087Z,36.53
2019-02-21T13:50:18.247Z,25.20
2019-02-21T13:52:47.664Z,30.33
2019-02-21T13:55:16.420Z,29.60
2019-02-21T13:57:46.846Z,31.70
2019-02-21T14:00:20.647Z,28.43
2019-02-21T14:02:49.383Z,28.27
2019-02-21T14:05:18.567Z,28.10
2019-02-21T14:07:47.210Z,30.70
2019-02-21T14:10:15.970Z,38.90
2019-02-21T14:12:44.622Z,31.83
2019-02-21T14:15:16.266Z,31.73
2019-02-21T14:17:46.669Z,30.67
2019-02-21T14:20:15.778Z,35.60
2019-02-21T14:22:44.413Z,28.57
2019-02-21T14:25:13.098Z,31.53
2019-02-21T14:27:42.338Z,34.20
2019-02-21T14:30:21.461Z,31.13
2019-02-21T14:32:50.097Z,28.33
2019-02-21T14:35:20.051Z,30.60
2019-02-21T14:37:48.653Z,32.03
2019-02-21T14:40:17.865Z,35.37
2019-02-21T14:42:46.712Z,25.93
2019-02-21T14:45:20.849Z,34.60
2019-02-21T14:47:51.384Z,29.90
2019-02-21T14:50:19.934Z,30.83
2019-02-21T14:52:48.614Z,30.73
2019-02-21T14:55:17.968Z,32.30
2019-02-21T14:57:46.873Z,31.60
2019-02-21T15:00:27.019Z,35.53
2019-02-21T15:02:57.677Z,29.73
2019-02-21T15:05:25.874Z,32.37
2019-02-21T15:07:54.488Z,31.80
2019-02-21T15:10:23.070Z,26.27
2019-02-21T15:12:52.047Z,28.83
2019-02-21T15:15:25.818Z,31.27
2019-02-21T15:18:04.463Z,35.33
2019-02-21T15:20:35.819Z,31.10
2019-02-21T15:22:55.208Z,33.73
2019-02-21T15:25:24.051Z,34.83
2019-02-21T15:27:53.178Z,36.53
2019-02-21T15:30:23.390Z,38.83
2019-02-21T15:32:52.073Z,33.90
2019-02-21T15:35:20.661Z,35.00
2019-02-21T15:37:49.409Z,32.30
2019-02-21T15:40:18.074Z,32.77
2019-02-21T15:42:46.796Z,32.00
2019-02-21T15:45:26.761Z,35.70
2019-02-21T15:47:55.452Z,37.93
2019-02-21T15:50:24.144Z,38.40
2019-02-21T15:52:54.593Z,33.20
2019-02-21T15:55:23.507Z,37.67
2019-02-21T15:58:03.456Z,32.70
2019-02-21T16:00:24.041Z,33.27
2019-02-21T16:02:54.605Z,33.80
2019-02-21T16:05:23.492Z,29.47
2019-02-21T16:07:52.174Z,31.10
2019-02-21T16:10:25.249Z,28.33
2019-02-21T16:12:54.290Z,31.70
2019-02-21T16:15:23.499Z,28.53
2019-02-21T16:17:52.213Z,28.90
2019-02-21T16:20:21.284Z,27.33
2019-02-21T16:22:49.996Z,33.83
2019-02-21T16:25:34.986Z,32.47
2019-02-21T16:28:03.978Z,30.93
2019-02-21T16:30:32.595Z,28.67
2019-02-21T16:33:01.257Z,28.07
2019-02-21T16:35:30.457Z,36.60
2019-02-21T16:37:59.200Z,35.03
2019-02-21T16:40:27.929Z,28.97
2019-02-21T16:42:56.566Z,35.27
2019-02-21T16:45:25.544Z,33.23
2019-02-21T16:47:54.121Z,30.67
2019-02-21T16:50:29.844Z,37.17
2019-02-21T16:52:53.115Z,36.77
2019-02-21T16:55:25.038Z,36.57
2019-02-21T16:57:53.924Z,34.37
2019-02-21T17:00:23.675Z,35.40
2019-02-21T17:02:52.456Z,35.77
2019-02-21T17:05:21.514Z,34.47
2019-02-21T17:07:50.191Z,33.47
2019-02-21T17:10:18.959Z,38.50
2019-02-21T17:12:47.692Z,36.17
2019-02-21T17:15:19.714Z,37.67
2019-02-21T17:17:48.740Z,34.47
2019-02-21T17:20:19.081Z,37.47
2019-02-21T17:22:47.926Z,38.37
2019-02-21T17:25:16.953Z,33.47
2019-02-21T17:27:46.101Z,37.13
2019-02-21T17:30:18.920Z,35.07
2019-02-21T17:32:47.503Z,43.50
2019-02-21T17:35:16.393Z,42.37
2019-02-21T17:38:06.375Z,34.97
2019-02-21T17:40:35.117Z,45.50
2019-02-21T17:43:03.735Z,41.73
2019-02-21T17:45:32.384Z,42.97
2019-02-21T17:48:01.012Z,45.40
2019-02-21T17:50:29.753Z,47.80
2019-02-21T17:52:58.766Z,47.30
2019-02-21T17:55:27.431Z,42.50
2019-02-21T17:57:57.854Z,39.27
2019-02-21T18:00:31.223Z,40.93
2019-02-21T18:02:59.882Z,39.73
2019-02-21T18:05:28.516Z,45.87
2019-02-21T18:07:57.428Z,51.97
2019-02-21T18:10:26.047Z,57.23
2019-02-21T18:12:54.817Z,38.77
2019-02-21T18:15:23.558Z,46.97
2019-02-21T18:17:52.289Z,42.63
2019-02-21T18:20:20.983Z,55.07
2019-02-21T18:22:50.022Z,43.60
2019-02-21T18:25:24.999Z,53.90
2019-02-21T18:27:53.546Z,53.20
2019-02-21T18:30:22.323Z,45.53
2019-02-21T18:32:51.120Z,43.10
2019-02-21T18:35:19.721Z,50.37
2019-02-21T18:37:48.375Z,49.10
2019-02-21T18:40:20.735Z,49.73
2019-02-21T18:42:49.949Z,49.37
2019-02-21T18:45:18.695Z,48.70
2019-02-21T18:47:47.341Z,50.47
2019-02-21T18:50:16.090Z,48.17
2019-02-21T18:52:44.683Z,44.43
2019-02-21T18:55:13.902Z,43.37
2019-02-21T18:57:42.640Z,50.37
2019-02-21T19:00:24.172Z,45.77
2019-02-21T19:02:53.038Z,52.33
2019-02-21T19:05:22.541Z,53.00
2019-02-21T19:08:00.826Z,50.13
2019-02-21T19:10:22.614Z,50.60
2019-02-21T19:12:51.299Z,57.30
2019-02-21T19:15:20.917Z,49.93
2019-02-21T19:17:49.638Z,48.50
2019-02-21T19:20:19.496Z,55.77
2019-02-21T19:22:48.250Z,53.37
2019-02-21T19:25:17.030Z,51.60
2019-02-21T19:27:45.921Z,46.30
2019-02-21T19:30:17.693Z,51.90
2019-02-21T19:32:46.404Z,55.03
2019-02-21T19:35:15.882Z,56.70
2019-02-21T19:37:44.650Z,56.57
2019-02-21T19:40:14.395Z,49.93
2019-02-21T19:42:43.145Z,49.57
2019-02-21T19:45:12.171Z,53.27
2019-02-21T19:47:40.930Z,57.07
2019-02-21T19:50:10.153Z,51.73
2019-02-21T19:52:38.908Z,58.00
2019-02-21T19:55:11.715Z,52.30
2019-02-21T19:57:40.395Z,52.40
2019-02-21T20:00:12.335Z,63.37
2019-02-21T20:02:41.081Z,58.60
2019-02-21T20:05:10.006Z,51.30
2019-02-21T20:07:38.801Z,55.57
2019-02-21T20:10:08.832Z,54.17
2019-02-21T20:12:37.831Z,58.33
2019-02-21T20:15:11.315Z,60.93
2019-02-21T20:17:40.011Z,62.90
2019-02-21T20:20:11.844Z,59.20
2019-02-21T20:22:40.454Z,55.30
2019-02-21T20:25:09.182Z,55.70
2019-02-21T20:27:37.840Z,65.30
2019-02-21T20:30:09.810Z,53.13
2019-02-21T20:32:38.775Z,57.47
2019-02-21T20:35:07.996Z,55.70
2019-02-21T20:37:36.674Z,57.43
2019-02-21T20:40:07.982Z,52.30
2019-02-21T20:42:36.769Z,65.93
2019-02-21T20:45:09.231Z,52.77
2019-02-21T20:47:38.332Z,59.77
2019-02-21T20:50:10.094Z,54.40
2019-02-21T20:52:39.312Z,56.60
2019-02-21T20:55:09.832Z,55.23
2019-02-21T20:57:38.830Z,56.77
2019-02-21T21:00:13.196Z,51.63
2019-02-21T21:02:42.234Z,45.97
2019-02-21T21:05:10.934Z,48.90
2019-02-21T21:07:39.699Z,63.80
2019-02-21T21:10:12.360Z,50.80
2019-02-21T21:12:41.148Z,49.43
2019-02-21T21:15:12.278Z,52.17
2019-02-21T21:17:41.041Z,50.67
2019-02-21T21:20:16.961Z,41.10
2019-02-21T21:22:44.800Z,50.17
2019-02-21T21:25:17.853Z,44.30
2019-02-21T21:27:46.610Z,43.63
2019-02-21T21:30:16.426Z,53.80
2019-02-21T21:32:45.378Z,48.80
2019-02-21T21:35:14.383Z,42.60
2019-02-21T21:37:43.042Z,41.40
2019-02-21T21:40:13.980Z,43.20
2019-02-21T21:42:42.767Z,44.97
2019-02-21T21:45:14.203Z,48.90
2019-02-21T21:47:42.850Z,43.77
2019-02-21T21:50:14.304Z,43.20
2019-02-21T21:52:43.341Z,45.37
2019-02-21T21:55:12.027Z,44.80
2019-02-21T21:57:40.941Z,49.47
2019-02-21T22:00:12.631Z,45.70
2019-02-21T22:02:41.299Z,47.53
2019-02-21T22:05:10.350Z,48.60
2019-02-21T22:07:38.986Z,51.10
2019-02-21T22:10:12.317Z,53.83
2019-02-21T22:12:41.114Z,59.97
2019-02-21T22:15:12.767Z,59.40
2019-02-21T22:17:42.179Z,57.03
2019-02-21T22:20:11.161Z,55.13
2019-02-21T22:22:40.294Z,58.63
2019-02-21T22:25:11.198Z,53.93
2019-02-21T22:27:39.778Z,63.33
2019-02-21T22:30:13.887Z,55.40
2019-02-21T22:32:42.566Z,78.37
2019-02-21T22:35:11.355Z,76.63
2019-02-21T22:37:40.008Z,60.10
2019-02-21T22:40:10.985Z,65.03
2019-02-21T22:42:39.572Z,62.53
2019-02-21T22:45:09.523Z,75.27
2019-02-21T22:47:38.178Z,65.70
2019-02-21T22:50:10.004Z,61.67
2019-02-21T22:52:38.580Z,72.73
2019-02-21T22:55:10.181Z,67.40
2019-02-21T22:57:38.528Z,82.73
2019-02-21T23:00:31.430Z,71.07
2019-02-21T23:03:01.527Z,63.73
2019-02-21T23:05:52.959Z,70.07
2019-02-21T23:08:43.535Z,78.00
2019-02-21T23:11:12.524Z,83.00
2019-02-21T23:13:41.182Z,77.63
2019-02-21T23:16:10.172Z,80.90
2019-02-21T23:18:39.009Z,90.07
2019-02-21T23:21:07.985Z,80.33
2019-02-21T23:23:36.799Z,72.37
2019-02-21T23:26:05.493Z,84.40
2019-02-21T23:28:34.519Z,77.23
2019-02-21T23:31:03.822Z,63.33
2019-02-21T23:33:34.037Z,86.70
2019-02-21T23:36:03.063Z,74.47
2019-02-21T23:38:31.737Z,87.40
2019-02-21T23:41:00.857Z,74.53
2019-02-21T23:43:31.487Z,83.10
2019-02-21T23:46:00.140Z,88.87
2019-02-21T23:48:28.826Z,87.70
2019-02-21T23:50:57.952Z,84.90
2019-02-21T23:53:28.870Z,99.97
2019-02-21T23:55:57.626Z,83.03
2019-02-21T23:58:26.512Z,105.70
